sensor_id;sensor_type;location;lat;lon;timestamp;temperature;humidity
75517;DHT22;64097;52.548;13.406;2023-02-28T06:03:30;6.10;57.00
75517;DHT22;64097;52.548;13.406;2023-02-28T06:05:56;6.10;57.30
75517;DHT22;64097;52.548;13.406;2023-02-28T06:08:22;6.10;57.30
75517;DHT22;64097;52.548;13.406;2023-02-28T06:10:47;6.10;58.30
75517;DHT22;64097;52.548;13.406;2023-02-28T06:13:13;6.00;57.50
75517;DHT22;64097;52.548;13.406;2023-02-28T06:15:39;6.00;57.50
75517;DHT22;64097;52.548;13.406;2023-02-28T06:18:05;6.00;57.40
75517;DHT22;64097;52.548;13.406;2023-02-28T06:20:31;6.00;57.30
75517;DHT22;64097;52.548;13.406;2023-02-28T06:22:57;6.00;57.30
75517;DHT22;64097;52.548;13.406;2023-02-28T06:25:27;6.00;57.50
75517;DHT22;64097;52.548;13.406;2023-02-28T06:27:53;6.00;57.50
75517;DHT22;64097;52.548;13.406;2023-02-28T06:30:19;6.00;57.50
75517;DHT22;64097;52.548;13.406;2023-02-28T06:32:49;6.00;57.50
75517;DHT22;64097;52.548;13.406;2023-02-28T06:35:15;6.00;57.80
75517;DHT22;64097;52.548;13.406;2023-02-28T06:37:40;6.00;57.50
75517;DHT22;64097;52.548;13.406;2023-02-28T06:40:08;6.00;57.50
75517;DHT22;64097;52.548;13.406;2023-02-28T06:42:34;6.10;57.60
75517;DHT22;64097;52.548;13.406;2023-02-28T06:45:00;6.00;57.50
75517;DHT22;64097;52.548;13.406;2023-02-28T06:47:30;6.10;57.60
75517;DHT22;64097;52.548;13.406;2023-02-28T06:49:55;6.10;57.50
75517;DHT22;64097;52.548;13.406;2023-02-28T06:52:21;6.10;57.50
75517;DHT22;64097;52.548;13.406;2023-02-28T06:54:50;6.10;57.50
75517;DHT22;64097;52.548;13.406;2023-02-28T06:57:27;6.20;57.50
75517;DHT22;64097;52.548;13.406;2023-02-28T06:59:52;6.20;57.40
75517;DHT22;64097;52.548;13.406;2023-02-28T07:02:18;6.20;57.50
75517;DHT22;64097;52.548;13.406;2023-02-28T07:04:45;6.20;57.40
75517;DHT22;64097;52.548;13.406;2023-02-28T07:07:10;6.30;57.50
75517;DHT22;64097;52.548;13.406;2023-02-28T07:09:36;6.30;57.50
75517;DHT22;64097;52.548;13.406;2023-02-28T07:12:02;6.30;57.50
75517;DHT22;64097;52.548;13.406;2023-02-28T07:14:27;6.30;57.40
75517;DHT22;64097;52.548;13.406;2023-02-28T07:16:53;6.30;57.40
75517;DHT22;64097;52.548;13.406;2023-02-28T07:19:19;6.30;57.40
75517;DHT22;64097;52.548;13.406;2023-02-28T07:21:45;6.40;57.40
75517;DHT22;64097;52.548;13.406;2023-02-28T07:24:11;6.40;57.30
75517;DHT22;64097;52.548;13.406;2023-02-28T07:26:37;6.40;57.30
75517;DHT22;64097;52.548;13.406;2023-02-28T07:29:03;6.50;57.30
75517;DHT22;64097;52.548;13.406;2023-02-28T07:31:28;6.50;57.20
75517;DHT22;64097;52.548;13.406;2023-02-28T07:33:54;6.50;57.00
75517;DHT22;64097;52.548;13.406;2023-02-28T07:36:21;6.60;56.90
75517;DHT22;64097;52.548;13.406;2023-02-28T07:38:48;6.60;56.60
75517;DHT22;64097;52.548;13.406;2023-02-28T07:41:16;6.60;56.30
75517;DHT22;64097;52.548;13.406;2023-02-28T07:43:42;6.70;56.20
75517;DHT22;64097;52.548;13.406;2023-02-28T07:46:10;6.70;55.90
75517;DHT22;64097;52.548;13.406;2023-02-28T07:48:37;6.70;56.50
75517;DHT22;64097;52.548;13.406;2023-02-28T07:51:03;6.80;55.70
75517;DHT22;64097;52.548;13.406;2023-02-28T07:53:29;6.80;55.60
75517;DHT22;64097;52.548;13.406;2023-02-28T07:55:59;6.90;55.30
75517;DHT22;64097;52.548;13.406;2023-02-28T07:58:27;6.90;54.80
75517;DHT22;64097;52.548;13.406;2023-02-28T08:00:53;6.90;54.70
75517;DHT22;64097;52.548;13.406;2023-02-28T08:03:20;7.00;54.70
75517;DHT22;64097;52.548;13.406;2023-02-28T08:05:47;7.00;54.60
75517;DHT22;64097;52.548;13.406;2023-02-28T08:08:14;7.00;54.20
75517;DHT22;64097;52.548;13.406;2023-02-28T08:10:39;7.10;53.30
75517;DHT22;64097;52.548;13.406;2023-02-28T08:13:05;7.10;52.40
75517;DHT22;64097;52.548;13.406;2023-02-28T08:15:31;7.10;52.50
75517;DHT22;64097;52.548;13.406;2023-02-28T08:17:57;7.20;52.20
75517;DHT22;64097;52.548;13.406;2023-02-28T08:20:24;7.20;52.20
75517;DHT22;64097;52.548;13.406;2023-02-28T08:22:50;7.20;51.20
75517;DHT22;64097;52.548;13.406;2023-02-28T08:25:15;7.30;51.90
75517;DHT22;64097;52.548;13.406;2023-02-28T08:27:41;7.30;51.00
75517;DHT22;64097;52.548;13.406;2023-02-28T08:30:09;7.30;50.60
75517;DHT22;64097;52.548;13.406;2023-02-28T08:32:35;7.30;50.00
75517;DHT22;64097;52.548;13.406;2023-02-28T08:35:01;7.40;49.70
75517;DHT22;64097;52.548;13.406;2023-02-28T08:37:28;7.40;49.20
75517;DHT22;64097;52.548;13.406;2023-02-28T08:39:54;7.40;48.80
75517;DHT22;64097;52.548;13.406;2023-02-28T08:42:19;7.50;48.40
75517;DHT22;64097;52.548;13.406;2023-02-28T08:44:45;7.50;47.70
75517;DHT22;64097;52.548;13.406;2023-02-28T08:47:11;7.50;47.70
75517;DHT22;64097;52.548;13.406;2023-02-28T08:49:37;7.60;47.50
75517;DHT22;64097;52.548;13.406;2023-02-28T08:52:03;7.60;46.80
75517;DHT22;64097;52.548;13.406;2023-02-28T08:54:29;7.60;46.70
75517;DHT22;64097;52.548;13.406;2023-02-28T08:56:56;7.60;46.00
75517;DHT22;64097;52.548;13.406;2023-02-28T08:59:22;7.70;45.80
75517;DHT22;64097;52.548;13.406;2023-02-28T09:01:48;7.70;46.00
75517;DHT22;64097;52.548;13.406;2023-02-28T09:04:14;7.70;45.00
75517;DHT22;64097;52.548;13.406;2023-02-28T09:06:39;7.70;44.70
75517;DHT22;64097;52.548;13.406;2023-02-28T09:09:06;7.70;44.30
75517;DHT22;64097;52.548;13.406;2023-02-28T09:11:33;7.70;44.30
75517;DHT22;64097;52.548;13.406;2023-02-28T09:14:00;7.80;45.10
75517;DHT22;64097;52.548;13.406;2023-02-28T09:16:26;7.80;44.60
75517;DHT22;64097;52.548;13.406;2023-02-28T09:18:52;7.90;44.60
75517;DHT22;64097;52.548;13.406;2023-02-28T09:21:18;7.90;44.50
75517;DHT22;64097;52.548;13.406;2023-02-28T09:23:46;7.90;44.00
75517;DHT22;64097;52.548;13.406;2023-02-28T09:26:21;8.00;43.70
75517;DHT22;64097;52.548;13.406;2023-02-28T09:28:48;8.00;43.60
75517;DHT22;64097;52.548;13.406;2023-02-28T09:31:17;8.00;42.60
75517;DHT22;64097;52.548;13.406;2023-02-28T09:33:46;8.00;43.00
75517;DHT22;64097;52.548;13.406;2023-02-28T09:36:12;8.00;42.70
75517;DHT22;64097;52.548;13.406;2023-02-28T09:38:38;8.00;43.30
75517;DHT22;64097;52.548;13.406;2023-02-28T09:41:14;8.10;43.50
75517;DHT22;64097;52.548;13.406;2023-02-28T09:43:45;8.10;43.00
75517;DHT22;64097;52.548;13.406;2023-02-28T09:48:56;8.10;42.90
75517;DHT22;64097;52.548;13.406;2023-02-28T09:53:54;8.20;42.10
75517;DHT22;64097;52.548;13.406;2023-02-28T09:58:56;8.20;42.20
75517;DHT22;64097;52.548;13.406;2023-02-28T10:01:31;8.20;41.70
75517;DHT22;64097;52.548;13.406;2023-02-28T10:06:48;8.20;41.60
75517;DHT22;64097;52.548;13.406;2023-02-28T10:09:26;8.20;41.60
75517;DHT22;64097;52.548;13.406;2023-02-28T10:11:57;8.20;41.40
75517;DHT22;64097;52.548;13.406;2023-02-28T10:14:28;8.20;41.20
75517;DHT22;64097;52.548;13.406;2023-02-28T10:17:19;8.20;41.20
75517;DHT22;64097;52.548;13.406;2023-02-28T10:25:23;8.30;41.50
75517;DHT22;64097;52.548;13.406;2023-02-28T10:27:52;8.30;41.60
75517;DHT22;64097;52.548;13.406;2023-02-28T10:30:19;8.30;41.30
75517;DHT22;64097;52.548;13.406;2023-02-28T10:32:51;8.30;41.00
75517;DHT22;64097;52.548;13.406;2023-02-28T10:35:26;8.30;40.60
75517;DHT22;64097;52.548;13.406;2023-02-28T10:37:57;8.30;40.30
75517;DHT22;64097;52.548;13.406;2023-02-28T10:42:59;8.30;40.50
75517;DHT22;64097;52.548;13.406;2023-02-28T10:45:26;8.30;40.90
75517;DHT22;64097;52.548;13.406;2023-02-28T10:56:04;8.40;41.10
75517;DHT22;64097;52.548;13.406;2023-02-28T10:58:42;8.40;40.90
75517;DHT22;64097;52.548;13.406;2023-02-28T11:01:43;8.40;40.50
75517;DHT22;64097;52.548;13.406;2023-02-28T11:06:56;8.50;40.30
75517;DHT22;64097;52.548;13.406;2023-02-28T11:09:26;8.40;40.10
75517;DHT22;64097;52.548;13.406;2023-02-28T11:11:54;8.50;40.20
75517;DHT22;64097;52.548;13.406;2023-02-28T11:14:32;8.50;40.00
75517;DHT22;64097;52.548;13.406;2023-02-28T11:17:11;8.50;40.10
75517;DHT22;64097;52.548;13.406;2023-02-28T11:19:45;8.50;40.00
75517;DHT22;64097;52.548;13.406;2023-02-28T11:22:22;8.50;40.10
75517;DHT22;64097;52.548;13.406;2023-02-28T11:24:52;8.50;40.30
75517;DHT22;64097;52.548;13.406;2023-02-28T11:27:49;8.50;40.50
75517;DHT22;64097;52.548;13.406;2023-02-28T11:30:31;8.60;41.50
75517;DHT22;64097;52.548;13.406;2023-02-28T11:35:43;8.60;40.50
75517;DHT22;64097;52.548;13.406;2023-02-28T11:38:12;8.70;40.40
75517;DHT22;64097;52.548;13.406;2023-02-28T11:49:22;8.70;39.80
75517;DHT22;64097;52.548;13.406;2023-02-28T11:52:01;8.70;40.20
75517;DHT22;64097;52.548;13.406;2023-02-28T12:03:22;8.80;39.80
75517;DHT22;64097;52.548;13.406;2023-02-28T12:17:51;8.80;39.70
75517;DHT22;64097;52.548;13.406;2023-02-28T12:20:33;8.80;39.60
75517;DHT22;64097;52.548;13.406;2023-02-28T12:28:20;8.80;39.90
75517;DHT22;64097;52.548;13.406;2023-02-28T12:31:01;8.80;39.80
75517;DHT22;64097;52.548;13.406;2023-02-28T12:33:36;8.80;39.80
75517;DHT22;64097;52.548;13.406;2023-02-28T12:36:09;8.80;39.90
75517;DHT22;64097;52.548;13.406;2023-02-28T12:41:47;8.80;40.10
75517;DHT22;64097;52.548;13.406;2023-02-28T12:44:26;8.90;40.30
75517;DHT22;64097;52.548;13.406;2023-02-28T12:46:56;8.90;40.10
75517;DHT22;64097;52.548;13.406;2023-02-28T12:49:31;8.90;40.10
75517;DHT22;64097;52.548;13.406;2023-02-28T12:51:59;8.90;40.30
75517;DHT22;64097;52.548;13.406;2023-02-28T12:59:56;9.00;40.30
75517;DHT22;64097;52.548;13.406;2023-02-28T13:05:25;9.00;40.30
75517;DHT22;64097;52.548;13.406;2023-02-28T13:08:07;9.00;40.40
75517;DHT22;64097;52.548;13.406;2023-02-28T13:10:44;9.00;40.40
75517;DHT22;64097;52.548;13.406;2023-02-28T13:13:20;9.10;40.50
75517;DHT22;64097;52.548;13.406;2023-02-28T13:18:46;9.00;40.30
75517;DHT22;64097;52.548;13.406;2023-02-28T13:21:27;9.00;39.50
75517;DHT22;64097;52.548;13.406;2023-02-28T13:29:21;9.00;40.30
75517;DHT22;64097;52.548;13.406;2023-02-28T13:34:41;9.00;40.40
75517;DHT22;64097;52.548;13.406;2023-02-28T13:47:29;9.10;40.40
75517;DHT22;64097;52.548;13.406;2023-02-28T13:58:34;9.20;40.20
